sensor_id;sensor_type;location;lat;lon;timestamp;P1;durP1;ratioP1;P2;durP2;ratioP2
12886;SDS011;6511;49.746;6.094;2022-09-09T00:02:21;8.40;;;3.70;;
12886;SDS011;6511;49.746;6.094;2022-09-09T00:05:28;7.30;;;3.50;;
12886;SDS011;6511;49.746;6.094;2022-09-09T00:07:57;10.25;;;3.40;;
12886;SDS011;6511;49.746;6.094;2022-09-09T00:10:26;8.83;;;3.20;;
12886;SDS011;6511;49.746;6.094;2022-09-09T00:21:12;7.55;;;2.60;;
12886;SDS011;6511;49.746;6.094;2022-09-09T00:23:47;8.45;;;2.78;;
12886;SDS011;6511;49.746;6.094;2022-09-09T00:29:10;8.73;;;3.37;;
12886;SDS011;6511;49.746;6.094;2022-09-09T00:31:48;8.13;;;3.55;;
12886;SDS011;6511;49.746;6.094;2022-09-09T00:34:23;7.35;;;3.50;;
12886;SDS011;6511;49.746;6.094;2022-09-09T00:36:52;9.77;;;3.70;;
12886;SDS011;6511;49.746;6.094;2022-09-09T00:39:32;6.82;;;3.55;;
12886;SDS011;6511;49.746;6.094;2022-09-09T00:44:34;6.05;;;3.63;;
12886;SDS011;6511;49.746;6.094;2022-09-09T00:57:52;8.30;;;3.78;;
12886;SDS011;6511;49.746;6.094;2022-09-09T01:00:22;8.33;;;3.70;;
12886;SDS011;6511;49.746;6.094;2022-09-09T01:11:22;8.90;;;3.80;;
12886;SDS011;6511;49.746;6.094;2022-09-09T01:13:55;8.98;;;3.63;;
12886;SDS011;6511;49.746;6.094;2022-09-09T01:16:50;5.97;;;3.45;;
12886;SDS011;6511;49.746;6.094;2022-09-09T01:19:27;8.37;;;3.60;;
12886;SDS011;6511;49.746;6.094;2022-09-09T01:22:35;10.23;;;3.65;;
12886;SDS011;6511;49.746;6.094;2022-09-09T01:27:48;9.07;;;3.47;;
12886;SDS011;6511;49.746;6.094;2022-09-09T01:30:16;6.78;;;3.30;;
12886;SDS011;6511;49.746;6.094;2022-09-09T01:38:26;9.65;;;3.03;;
12886;SDS011;6511;49.746;6.094;2022-09-09T01:40:52;8.73;;;3.05;;
12886;SDS011;6511;49.746;6.094;2022-09-09T01:43:19;7.68;;;2.88;;
12886;SDS011;6511;49.746;6.094;2022-09-09T01:45:47;8.18;;;2.63;;
12886;SDS011;6511;49.746;6.094;2022-09-09T01:48:16;8.85;;;2.85;;
12886;SDS011;6511;49.746;6.094;2022-09-09T01:50:44;8.40;;;2.95;;
12886;SDS011;6511;49.746;6.094;2022-09-09T01:53:09;4.90;;;2.70;;
12886;SDS011;6511;49.746;6.094;2022-09-09T01:55:38;8.85;;;2.83;;
12886;SDS011;6511;49.746;6.094;2022-09-09T01:58:17;9.73;;;3.00;;
12886;SDS011;6511;49.746;6.094;2022-09-09T02:01:09;6.63;;;2.70;;
12886;SDS011;6511;49.746;6.094;2022-09-09T02:03:50;7.18;;;2.80;;
12886;SDS011;6511;49.746;6.094;2022-09-09T02:06:25;6.80;;;2.90;;
12886;SDS011;6511;49.746;6.094;2022-09-09T02:08:56;9.38;;;3.05;;
12886;SDS011;6511;49.746;6.094;2022-09-09T02:11:25;8.52;;;2.90;;
12886;SDS011;6511;49.746;6.094;2022-09-09T02:13:53;7.00;;;3.00;;
12886;SDS011;6511;49.746;6.094;2022-09-09T02:19:23;10.45;;;3.08;;
12886;SDS011;6511;49.746;6.094;2022-09-09T02:21:57;8.77;;;2.80;;
12886;SDS011;6511;49.746;6.094;2022-09-09T02:24:25;8.40;;;2.70;;
12886;SDS011;6511;49.746;6.094;2022-09-09T02:26:54;9.13;;;2.80;;
12886;SDS011;6511;49.746;6.094;2022-09-09T02:29:27;8.23;;;3.10;;
12886;SDS011;6511;49.746;6.094;2022-09-09T02:32:05;7.78;;;2.92;;
12886;SDS011;6511;49.746;6.094;2022-09-09T02:34:35;8.10;;;2.90;;
12886;SDS011;6511;49.746;6.094;2022-09-09T02:37:05;11.20;;;2.50;;
12886;SDS011;6511;49.746;6.094;2022-09-09T02:39:34;9.30;;;2.70;;
12886;SDS011;6511;49.746;6.094;2022-09-09T02:42:00;7.88;;;2.50;;
12886;SDS011;6511;49.746;6.094;2022-09-09T02:44:29;7.40;;;2.55;;
12886;SDS011;6511;49.746;6.094;2022-09-09T02:52:13;7.43;;;2.83;;
12886;SDS011;6511;49.746;6.094;2022-09-09T02:54:43;7.45;;;2.78;;
12886;SDS011;6511;49.746;6.094;2022-09-09T02:59:44;10.25;;;3.40;;
12886;SDS011;6511;49.746;6.094;2022-09-09T03:02:11;9.38;;;3.15;;
12886;SDS011;6511;49.746;6.094;2022-09-09T03:04:38;9.68;;;3.33;;
12886;SDS011;6511;49.746;6.094;2022-09-09T03:07:04;9.43;;;3.25;;
12886;SDS011;6511;49.746;6.094;2022-09-09T03:09:30;8.60;;;3.17;;
12886;SDS011;6511;49.746;6.094;2022-09-09T03:11:56;9.67;;;3.03;;
12886;SDS011;6511;49.746;6.094;2022-09-09T03:14:22;11.48;;;3.20;;
12886;SDS011;6511;49.746;6.094;2022-09-09T03:16:50;9.38;;;3.05;;
12886;SDS011;6511;49.746;6.094;2022-09-09T03:19:16;8.68;;;3.10;;
12886;SDS011;6511;49.746;6.094;2022-09-09T03:21:43;8.85;;;3.72;;
12886;SDS011;6511;49.746;6.094;2022-09-09T03:24:10;10.45;;;3.20;;
12886;SDS011;6511;49.746;6.094;2022-09-09T03:26:36;10.40;;;3.30;;
12886;SDS011;6511;49.746;6.094;2022-09-09T03:29:02;10.33;;;3.40;;
12886;SDS011;6511;49.746;6.094;2022-09-09T03:31:32;10.60;;;3.53;;
12886;SDS011;6511;49.746;6.094;2022-09-09T03:33:59;10.43;;;3.60;;
12886;SDS011;6511;49.746;6.094;2022-09-09T03:36:25;10.30;;;3.85;;
12886;SDS011;6511;49.746;6.094;2022-09-09T03:38:51;11.85;;;3.60;;
12886;SDS011;6511;49.746;6.094;2022-09-09T03:41:18;11.97;;;3.57;;
12886;SDS011;6511;49.746;6.094;2022-09-09T03:43:44;9.95;;;3.88;;
12886;SDS011;6511;49.746;6.094;2022-09-09T03:46:09;10.43;;;3.50;;
12886;SDS011;6511;49.746;6.094;2022-09-09T03:48:35;11.27;;;3.38;;
12886;SDS011;6511;49.746;6.094;2022-09-09T03:51:01;11.80;;;3.50;;
12886;SDS011;6511;49.746;6.094;2022-09-09T03:53:29;8.82;;;3.25;;
12886;SDS011;6511;49.746;6.094;2022-09-09T03:55:56;9.77;;;3.13;;
12886;SDS011;6511;49.746;6.094;2022-09-09T03:58:25;9.10;;;3.27;;
12886;SDS011;6511;49.746;6.094;2022-09-09T04:01:05;11.27;;;3.22;;
12886;SDS011;6511;49.746;6.094;2022-09-09T04:03:36;10.77;;;3.20;;
12886;SDS011;6511;49.746;6.094;2022-09-09T04:06:02;7.97;;;2.72;;
12886;SDS011;6511;49.746;6.094;2022-09-09T04:08:29;8.63;;;2.80;;
12886;SDS011;6511;49.746;6.094;2022-09-09T04:10:58;10.05;;;2.80;;
12886;SDS011;6511;49.746;6.094;2022-09-09T04:13:32;10.05;;;2.97;;
12886;SDS011;6511;49.746;6.094;2022-09-09T04:15:59;12.37;;;3.03;;
12886;SDS011;6511;49.746;6.094;2022-09-09T04:18:27;10.15;;;3.00;;
12886;SDS011;6511;49.746;6.094;2022-09-09T04:20:53;8.45;;;2.70;;
12886;SDS011;6511;49.746;6.094;2022-09-09T04:23:22;9.40;;;2.80;;
12886;SDS011;6511;49.746;6.094;2022-09-09T04:25:49;10.85;;;2.65;;
12886;SDS011;6511;49.746;6.094;2022-09-09T04:28:17;13.57;;;3.10;;
12886;SDS011;6511;49.746;6.094;2022-09-09T04:30:44;10.50;;;3.00;;
12886;SDS011;6511;49.746;6.094;2022-09-09T04:33:10;11.18;;;2.90;;
12886;SDS011;6511;49.746;6.094;2022-09-09T04:35:37;8.88;;;2.67;;
12886;SDS011;6511;49.746;6.094;2022-09-09T04:38:03;10.70;;;2.85;;
12886;SDS011;6511;49.746;6.094;2022-09-09T04:40:30;9.23;;;2.50;;
12886;SDS011;6511;49.746;6.094;2022-09-09T04:43:00;11.53;;;2.60;;
12886;SDS011;6511;49.746;6.094;2022-09-09T04:45:28;8.48;;;2.50;;
12886;SDS011;6511;49.746;6.094;2022-09-09T04:47:54;10.15;;;2.53;;
12886;SDS011;6511;49.746;6.094;2022-09-09T04:50:20;9.53;;;2.57;;
12886;SDS011;6511;49.746;6.094;2022-09-09T04:52:45;10.52;;;2.70;;
12886;SDS011;6511;49.746;6.094;2022-09-09T04:55:11;10.00;;;2.90;;
12886;SDS011;6511;49.746;6.094;2022-09-09T04:57:38;9.35;;;2.50;;
12886;SDS011;6511;49.746;6.094;2022-09-09T05:00:04;9.52;;;2.40;;
12886;SDS011;6511;49.746;6.094;2022-09-09T05:02:30;8.77;;;2.40;;
12886;SDS011;6511;49.746;6.094;2022-09-09T05:04:57;13.83;;;2.60;;
12886;SDS011;6511;49.746;6.094;2022-09-09T05:07:23;11.30;;;2.80;;
12886;SDS011;6511;49.746;6.094;2022-09-09T05:09:49;8.63;;;2.63;;
12886;SDS011;6511;49.746;6.094;2022-09-09T05:12:15;9.65;;;2.50;;
12886;SDS011;6511;49.746;6.094;2022-09-09T05:14:42;10.07;;;2.70;;
12886;SDS011;6511;49.746;6.094;2022-09-09T05:17:08;8.77;;;2.40;;
12886;SDS011;6511;49.746;6.094;2022-09-09T05:19:34;10.52;;;2.47;;
12886;SDS011;6511;49.746;6.094;2022-09-09T05:22:00;8.80;;;2.53;;
12886;SDS011;6511;49.746;6.094;2022-09-09T05:24:26;9.17;;;2.60;;
12886;SDS011;6511;49.746;6.094;2022-09-09T05:26:51;9.65;;;2.60;;
12886;SDS011;6511;49.746;6.094;2022-09-09T05:29:17;11.20;;;2.80;;
12886;SDS011;6511;49.746;6.094;2022-09-09T05:31:44;9.18;;;2.80;;
12886;SDS011;6511;49.746;6.094;2022-09-09T05:34:11;10.13;;;2.60;;
12886;SDS011;6511;49.746;6.094;2022-09-09T05:36:36;8.55;;;2.45;;
12886;SDS011;6511;49.746;6.094;2022-09-09T05:39:03;11.02;;;3.05;;
12886;SDS011;6511;49.746;6.094;2022-09-09T05:41:28;11.15;;;2.65;;
12886;SDS011;6511;49.746;6.094;2022-09-09T05:43:55;9.02;;;2.38;;
12886;SDS011;6511;49.746;6.094;2022-09-09T05:46:21;9.40;;;2.40;;
12886;SDS011;6511;49.746;6.094;2022-09-09T05:48:49;11.80;;;2.47;;
12886;SDS011;6511;49.746;6.094;2022-09-09T05:51:23;9.20;;;2.60;;
12886;SDS011;6511;49.746;6.094;2022-09-09T05:53:51;9.43;;;2.47;;
12886;SDS011;6511;49.746;6.094;2022-09-09T05:56:20;7.20;;;2.00;;
12886;SDS011;6511;49.746;6.094;2022-09-09T05:58:49;8.05;;;2.20;;
12886;SDS011;6511;49.746;6.094;2022-09-09T06:01:16;11.43;;;2.30;;
12886;SDS011;6511;49.746;6.094;2022-09-09T06:03:46;9.68;;;2.40;;
12886;SDS011;6511;49.746;6.094;2022-09-09T06:06:15;9.88;;;2.40;;
12886;SDS011;6511;49.746;6.094;2022-09-09T06:08:43;10.10;;;2.28;;
12886;SDS011;6511;49.746;6.094;2022-09-09T06:11:20;10.90;;;2.72;;
12886;SDS011;6511;49.746;6.094;2022-09-09T06:13:48;8.35;;;2.28;;
12886;SDS011;6511;49.746;6.094;2022-09-09T06:16:17;10.50;;;2.15;;
12886;SDS011;6511;49.746;6.094;2022-09-09T06:18:43;7.60;;;2.10;;
12886;SDS011;6511;49.746;6.094;2022-09-09T06:21:23;10.80;;;2.40;;
12886;SDS011;6511;49.746;6.094;2022-09-09T06:23:49;8.13;;;2.00;;
12886;SDS011;6511;49.746;6.094;2022-09-09T06:26:22;8.60;;;2.30;;
12886;SDS011;6511;49.746;6.094;2022-09-09T06:28:50;8.88;;;2.10;;
12886;SDS011;6511;49.746;6.094;2022-09-09T06:31:18;7.32;;;2.17;;
12886;SDS011;6511;49.746;6.094;2022-09-09T06:33:49;9.88;;;2.30;;
12886;SDS011;6511;49.746;6.094;2022-09-09T06:36:17;8.57;;;1.92;;
12886;SDS011;6511;49.746;6.094;2022-09-09T06:38:47;8.70;;;1.92;;
12886;SDS011;6511;49.746;6.094;2022-09-09T06:41:14;7.25;;;2.08;;
12886;SDS011;6511;49.746;6.094;2022-09-09T06:43:41;10.75;;;2.38;;
12886;SDS011;6511;49.746;6.094;2022-09-09T06:46:17;7.75;;;1.92;;
12886;SDS011;6511;49.746;6.094;2022-09-09T06:48:44;11.45;;;2.20;;
12886;SDS011;6511;49.746;6.094;2022-09-09T06:53:38;8.68;;;2.08;;
12886;SDS011;6511;49.746;6.094;2022-09-09T06:58:40;8.52;;;2.10;;
12886;SDS011;6511;49.746;6.094;2022-09-09T07:01:09;9.10;;;2.47;;
12886;SDS011;6511;49.746;6.094;2022-09-09T07:03:37;7.95;;;2.25;;
12886;SDS011;6511;49.746;6.094;2022-09-09T07:06:04;7.38;;;1.85;;
12886;SDS011;6511;49.746;6.094;2022-09-09T07:08:30;9.07;;;2.13;;
12886;SDS011;6511;49.746;6.094;2022-09-09T07:11:01;8.88;;;2.13;;
12886;SDS011;6511;49.746;6.094;2022-09-09T07:13:31;7.73;;;2.10;;
12886;SDS011;6511;49.746;6.094;2022-09-09T07:16:07;8.18;;;1.95;;
12886;SDS011;6511;49.746;6.094;2022-09-09T07:18:34;7.30;;;2.10;;
12886;SDS011;6511;49.746;6.094;2022-09-09T07:21:00;7.33;;;2.27;;
12886;SDS011;6511;49.746;6.094;2022-09-09T07:23:28;7.60;;;2.30;;
12886;SDS011;6511;49.746;6.094;2022-09-09T07:25:55;9.18;;;2.10;;
12886;SDS011;6511;49.746;6.094;2022-09-09T07:28:21;8.27;;;2.20;;
12886;SDS011;6511;49.746;6.094;2022-09-09T07:30:57;7.88;;;2.08;;
12886;SDS011;6511;49.746;6.094;2022-09-09T07:33:24;7.65;;;2.10;;
12886;SDS011;6511;49.746;6.094;2022-09-09T07:35:50;9.00;;;2.05;;
12886;SDS011;6511;49.746;6.094;2022-09-09T07:38:16;9.10;;;2.20;;
12886;SDS011;6511;49.746;6.094;2022-09-09T07:40:43;10.50;;;2.22;;
12886;SDS011;6511;49.746;6.094;2022-09-09T07:43:09;7.07;;;2.10;;
12886;SDS011;6511;49.746;6.094;2022-09-09T07:45:35;10.15;;;2.08;;
12886;SDS011;6511;49.746;6.094;2022-09-09T07:48:01;8.20;;;2.13;;
12886;SDS011;6511;49.746;6.094;2022-09-09T07:50:27;8.82;;;2.20;;
12886;SDS011;6511;49.746;6.094;2022-09-09T07:52:53;7.93;;;1.98;;
12886;SDS011;6511;49.746;6.094;2022-09-09T07:55:22;7.80;;;2.10;;
12886;SDS011;6511;49.746;6.094;2022-09-09T07:57:52;10.88;;;2.03;;
12886;SDS011;6511;49.746;6.094;2022-09-09T08:00:18;6.78;;;2.00;;
12886;SDS011;6511;49.746;6.094;2022-09-09T08:02:45;9.38;;;2.05;;
12886;SDS011;6511;49.746;6.094;2022-09-09T08:05:11;9.70;;;2.22;;
12886;SDS011;6511;49.746;6.094;2022-09-09T08:07:37;9.02;;;2.15;;
12886;SDS011;6511;49.746;6.094;2022-09-09T08:10:03;8.27;;;2.17;;
12886;SDS011;6511;49.746;6.094;2022-09-09T08:12:29;7.15;;;2.28;;
12886;SDS011;6511;49.746;6.094;2022-09-09T08:14:55;8.40;;;2.03;;
12886;SDS011;6511;49.746;6.094;2022-09-09T08:17:21;9.33;;;2.10;;
12886;SDS011;6511;49.746;6.094;2022-09-09T08:19:46;7.45;;;1.80;;
12886;SDS011;6511;49.746;6.094;2022-09-09T08:22:12;7.68;;;1.90;;
12886;SDS011;6511;49.746;6.094;2022-09-09T08:24:37;7.75;;;2.20;;
12886;SDS011;6511;49.746;6.094;2022-09-09T08:27:04;6.38;;;1.80;;
12886;SDS011;6511;49.746;6.094;2022-09-09T08:29:30;8.43;;;1.92;;
12886;SDS011;6511;49.746;6.094;2022-09-09T08:31:56;7.97;;;2.20;;
12886;SDS011;6511;49.746;6.094;2022-09-09T08:34:24;8.63;;;1.90;;
12886;SDS011;6511;49.746;6.094;2022-09-09T08:36:52;6.80;;;2.10;;
12886;SDS011;6511;49.746;6.094;2022-09-09T08:39:19;8.32;;;2.10;;
12886;SDS011;6511;49.746;6.094;2022-09-09T08:52:38;8.82;;;2.03;;
12886;SDS011;6511;49.746;6.094;2022-09-09T08:55:22;6.45;;;2.05;;
12886;SDS011;6511;49.746;6.094;2022-09-09T08:57:56;6.88;;;1.77;;
12886;SDS011;6511;49.746;6.094;2022-09-09T09:00:22;8.50;;;1.90;;
12886;SDS011;6511;49.746;6.094;2022-09-09T09:06:10;6.57;;;1.80;;
12886;SDS011;6511;49.746;6.094;2022-09-09T09:09:21;8.68;;;2.10;;
12886;SDS011;6511;49.746;6.094;2022-09-09T09:12:22;6.88;;;1.80;;
12886;SDS011;6511;49.746;6.094;2022-09-09T09:14:49;5.93;;;1.80;;
12886;SDS011;6511;49.746;6.094;2022-09-09T09:17:17;6.90;;;1.77;;
12886;SDS011;6511;49.746;6.094;2022-09-09T09:19:44;6.15;;;1.90;;
12886;SDS011;6511;49.746;6.094;2022-09-09T09:30:40;7.18;;;2.00;;
12886;SDS011;6511;49.746;6.094;2022-09-09T09:33:56;6.40;;;1.87;;
12886;SDS011;6511;49.746;6.094;2022-09-09T09:35:59;5.47;;;1.60;;
12886;SDS011;6511;49.746;6.094;2022-09-09T09:38:25;7.18;;;1.70;;
12886;SDS011;6511;49.746;6.094;2022-09-09T09:40:53;5.25;;;1.73;;
12886;SDS011;6511;49.746;6.094;2022-09-09T09:43:25;7.43;;;1.70;;
12886;SDS011;6511;49.746;6.094;2022-09-09T09:45:51;8.38;;;1.83;;
12886;SDS011;6511;49.746;6.094;2022-09-09T09:48:17;9.63;;;1.80;;
12886;SDS011;6511;49.746;6.094;2022-09-09T09:51:03;6.27;;;1.90;;
12886;SDS011;6511;49.746;6.094;2022-09-09T09:53:36;6.32;;;1.67;;
12886;SDS011;6511;49.746;6.094;2022-09-09T09:56:05;7.07;;;1.67;;
12886;SDS011;6511;49.746;6.094;2022-09-09T10:04:03;5.53;;;1.83;;
12886;SDS011;6511;49.746;6.094;2022-09-09T10:06:38;5.72;;;1.65;;
12886;SDS011;6511;49.746;6.094;2022-09-09T10:09:20;4.73;;;1.60;;
12886;SDS011;6511;49.746;6.094;2022-09-09T10:12:06;6.43;;;1.60;;
12886;SDS011;6511;49.746;6.094;2022-09-09T10:22:43;6.45;;;1.50;;
12886;SDS011;6511;49.746;6.094;2022-09-09T10:33:33;5.35;;;1.67;;
12886;SDS011;6511;49.746;6.094;2022-09-09T10:36:13;6.28;;;1.70;;
12886;SDS011;6511;49.746;6.094;2022-09-09T10:38:53;5.88;;;1.52;;
12886;SDS011;6511;49.746;6.094;2022-09-09T10:55:16;5.10;;;1.45;;
12886;SDS011;6511;49.746;6.094;2022-09-09T10:57:51;5.32;;;1.40;;
12886;SDS011;6511;49.746;6.094;2022-09-09T11:02:50;4.57;;;1.45;;
12886;SDS011;6511;49.746;6.094;2022-09-09T11:05:31;3.37;;;1.20;;
12886;SDS011;6511;49.746;6.094;2022-09-09T11:08:09;3.97;;;1.30;;
12886;SDS011;6511;49.746;6.094;2022-09-09T11:10:48;4.53;;;1.40;;
12886;SDS011;6511;49.746;6.094;2022-09-09T11:18:44;4.80;;;1.50;;
12886;SDS011;6511;49.746;6.094;2022-09-09T11:24:13;6.00;;;1.40;;
12886;SDS011;6511;49.746;6.094;2022-09-09T11:40:56;5.70;;;1.30;;
12886;SDS011;6511;49.746;6.094;2022-09-09T11:46:03;2.78;;;1.15;;
12886;SDS011;6511;49.746;6.094;2022-09-09T11:48:42;3.77;;;1.20;;
12886;SDS011;6511;49.746;6.094;2022-09-09T11:51:25;3.80;;;1.30;;
12886;SDS011;6511;49.746;6.094;2022-09-09T11:59:29;3.88;;;1.20;;
12886;SDS011;6511;49.746;6.094;2022-09-09T12:02:03;5.35;;;1.48;;
12886;SDS011;6511;49.746;6.094;2022-09-09T12:12:46;4.63;;;1.15;;
12886;SDS011;6511;49.746;6.094;2022-09-09T12:17:50;4.93;;;1.30;;
12886;SDS011;6511;49.746;6.094;2022-09-09T12:36:38;4.18;;;1.50;;
12886;SDS011;6511;49.746;6.094;2022-09-09T12:39:10;4.40;;;1.40;;
12886;SDS011;6511;49.746;6.094;2022-09-09T12:41:53;4.60;;;1.33;;
12886;SDS011;6511;49.746;6.094;2022-09-09T12:44:21;5.28;;;1.50;;
12886;SDS011;6511;49.746;6.094;2022-09-09T12:46:47;5.32;;;1.60;;
12886;SDS011;6511;49.746;6.094;2022-09-09T12:49:33;5.07;;;1.40;;
12886;SDS011;6511;49.746;6.094;2022-09-09T12:54:43;5.20;;;1.60;;
12886;SDS011;6511;49.746;6.094;2022-09-09T12:57:11;4.07;;;1.60;;
12886;SDS011;6511;49.746;6.094;2022-09-09T12:59:39;4.82;;;1.30;;
12886;SDS011;6511;49.746;6.094;2022-09-09T13:02:17;4.18;;;1.60;;
12886;SDS011;6511;49.746;6.094;2022-09-09T13:04:47;7.20;;;2.08;;
12886;SDS011;6511;49.746;6.094;2022-09-09T13:07:15;4.63;;;1.70;;
12886;SDS011;6511;49.746;6.094;2022-09-09T13:09:42;4.70;;;1.50;;
12886;SDS011;6511;49.746;6.094;2022-09-09T13:12:12;4.63;;;1.58;;
12886;SDS011;6511;49.746;6.094;2022-09-09T13:14:42;9.73;;;2.30;;
12886;SDS011;6511;49.746;6.094;2022-09-09T13:17:15;6.35;;;2.03;;
12886;SDS011;6511;49.746;6.094;2022-09-09T13:19:47;9.15;;;2.50;;
12886;SDS011;6511;49.746;6.094;2022-09-09T13:27:33;5.00;;;1.85;;
12886;SDS011;6511;49.746;6.094;2022-09-09T13:30:18;4.45;;;1.70;;
12886;SDS011;6511;49.746;6.094;2022-09-09T13:35:57;7.40;;;2.00;;
12886;SDS011;6511;49.746;6.094;2022-09-09T13:38:31;5.20;;;2.10;;
12886;SDS011;6511;49.746;6.094;2022-09-09T13:41:08;4.50;;;1.95;;
12886;SDS011;6511;49.746;6.094;2022-09-09T13:43:44;8.30;;;2.25;;
12886;SDS011;6511;49.746;6.094;2022-09-09T13:48:57;5.35;;;1.95;;
12886;SDS011;6511;49.746;6.094;2022-09-09T13:51:43;5.80;;;2.17;;
12886;SDS011;6511;49.746;6.094;2022-09-09T13:54:16;6.55;;;2.10;;
12886;SDS011;6511;49.746;6.094;2022-09-09T13:56:45;6.55;;;1.75;;
12886;SDS011;6511;49.746;6.094;2022-09-09T13:59:13;6.70;;;1.90;;
12886;SDS011;6511;49.746;6.094;2022-09-09T14:01:41;4.72;;;1.90;;
12886;SDS011;6511;49.746;6.094;2022-09-09T14:04:07;5.43;;;1.80;;
12886;SDS011;6511;49.746;6.094;2022-09-09T14:06:37;4.28;;;1.40;;
12886;SDS011;6511;49.746;6.094;2022-09-09T14:09:08;4.35;;;1.65;;
12886;SDS011;6511;49.746;6.094;2022-09-09T14:11:37;3.85;;;1.60;;
12886;SDS011;6511;49.746;6.094;2022-09-09T14:14:03;4.88;;;1.90;;
12886;SDS011;6511;49.746;6.094;2022-09-09T14:16:30;6.20;;;1.97;;
12886;SDS011;6511;49.746;6.094;2022-09-09T14:18:56;4.28;;;1.70;;
12886;SDS011;6511;49.746;6.094;2022-09-09T14:21:22;5.78;;;1.90;;
12886;SDS011;6511;49.746;6.094;2022-09-09T14:23:48;4.88;;;1.70;;
12886;SDS011;6511;49.746;6.094;2022-09-09T14:26:14;3.95;;;1.60;;
12886;SDS011;6511;49.746;6.094;2022-09-09T14:28:39;5.23;;;1.60;;
12886;SDS011;6511;49.746;6.094;2022-09-09T14:31:05;4.83;;;1.57;;
12886;SDS011;6511;49.746;6.094;2022-09-09T14:33:32;5.60;;;1.70;;
12886;SDS011;6511;49.746;6.094;2022-09-09T14:35:58;4.60;;;1.67;;
12886;SDS011;6511;49.746;6.094;2022-09-09T14:38:26;3.75;;;1.60;;
12886;SDS011;6511;49.746;6.094;2022-09-09T14:40:55;4.38;;;1.60;;
12886;SDS011;6511;49.746;6.094;2022-09-09T14:43:21;3.25;;;1.40;;
12886;SDS011;6511;49.746;6.094;2022-09-09T14:45:47;5.77;;;1.67;;
12886;SDS011;6511;49.746;6.094;2022-09-09T14:48:16;3.95;;;1.60;;
12886;SDS011;6511;49.746;6.094;2022-09-09T14:50:42;5.68;;;1.70;;
12886;SDS011;6511;49.746;6.094;2022-09-09T14:53:08;4.80;;;1.60;;
12886;SDS011;6511;49.746;6.094;2022-09-09T14:55:35;4.87;;;1.50;;
12886;SDS011;6511;49.746;6.094;2022-09-09T14:58:01;5.77;;;1.93;;
12886;SDS011;6511;49.746;6.094;2022-09-09T15:00:27;4.65;;;2.03;;
12886;SDS011;6511;49.746;6.094;2022-09-09T15:02:53;5.53;;;1.80;;
12886;SDS011;6511;49.746;6.094;2022-09-09T15:05:19;4.75;;;1.75;;
12886;SDS011;6511;49.746;6.094;2022-09-09T15:07:45;4.65;;;2.00;;
12886;SDS011;6511;49.746;6.094;2022-09-09T15:10:10;3.92;;;1.70;;
12886;SDS011;6511;49.746;6.094;2022-09-09T15:12:36;4.55;;;1.50;;
12886;SDS011;6511;49.746;6.094;2022-09-09T15:15:03;4.13;;;1.75;;
12886;SDS011;6511;49.746;6.094;2022-09-09T15:17:30;5.03;;;1.70;;
12886;SDS011;6511;49.746;6.094;2022-09-09T15:19:55;6.33;;;2.10;;
12886;SDS011;6511;49.746;6.094;2022-09-09T15:22:21;5.65;;;2.00;;
12886;SDS011;6511;49.746;6.094;2022-09-09T15:24:49;5.07;;;1.70;;
12886;SDS011;6511;49.746;6.094;2022-09-09T15:27:14;2.25;;;1.45;;
12886;SDS011;6511;49.746;6.094;2022-09-09T15:29:40;3.23;;;1.20;;
12886;SDS011;6511;49.746;6.094;2022-09-09T15:32:09;2.53;;;1.10;;
12886;SDS011;6511;49.746;6.094;2022-09-09T15:34:38;1.58;;;0.90;;
12886;SDS011;6511;49.746;6.094;2022-09-09T15:37:04;2.50;;;0.95;;
12886;SDS011;6511;49.746;6.094;2022-09-09T15:39:31;3.60;;;1.30;;
12886;SDS011;6511;49.746;6.094;2022-09-09T15:41:56;4.07;;;1.30;;
12886;SDS011;6511;49.746;6.094;2022-09-09T15:44:22;4.50;;;1.40;;
12886;SDS011;6511;49.746;6.094;2022-09-09T15:46:50;4.60;;;1.50;;
12886;SDS011;6511;49.746;6.094;2022-09-09T15:49:19;3.50;;;1.37;;
12886;SDS011;6511;49.746;6.094;2022-09-09T15:51:51;3.92;;;1.30;;
12886;SDS011;6511;49.746;6.094;2022-09-09T15:54:22;5.13;;;1.50;;
12886;SDS011;6511;49.746;6.094;2022-09-09T15:56:51;4.32;;;1.60;;
12886;SDS011;6511;49.746;6.094;2022-09-09T15:59:25;5.35;;;1.60;;
12886;SDS011;6511;49.746;6.094;2022-09-09T16:01:52;4.75;;;1.63;;
12886;SDS011;6511;49.746;6.094;2022-09-09T16:04:20;4.82;;;1.73;;
12886;SDS011;6511;49.746;6.094;2022-09-09T16:06:59;3.92;;;1.40;;
12886;SDS011;6511;49.746;6.094;2022-09-09T16:09:30;6.37;;;1.70;;
12886;SDS011;6511;49.746;6.094;2022-09-09T16:11:57;4.47;;;1.53;;
12886;SDS011;6511;49.746;6.094;2022-09-09T16:14:25;3.88;;;1.45;;
12886;SDS011;6511;49.746;6.094;2022-09-09T16:16:52;3.85;;;1.55;;
12886;SDS011;6511;49.746;6.094;2022-09-09T16:19:17;4.22;;;1.40;;
12886;SDS011;6511;49.746;6.094;2022-09-09T16:21:45;6.28;;;1.63;;
12886;SDS011;6511;49.746;6.094;2022-09-09T16:24:13;5.13;;;1.40;;
12886;SDS011;6511;49.746;6.094;2022-09-09T16:26:41;4.90;;;1.45;;
12886;SDS011;6511;49.746;6.094;2022-09-09T16:29:10;2.40;;;1.38;;
12886;SDS011;6511;49.746;6.094;2022-09-09T16:31:39;3.53;;;1.52;;
12886;SDS011;6511;49.746;6.094;2022-09-09T16:34:06;3.40;;;1.50;;
12886;SDS011;6511;49.746;6.094;2022-09-09T16:36:33;4.80;;;1.40;;
12886;SDS011;6511;49.746;6.094;2022-09-09T16:39:03;4.55;;;1.70;;
12886;SDS011;6511;49.746;6.094;2022-09-09T16:41:30;3.08;;;1.40;;
12886;SDS011;6511;49.746;6.094;2022-09-09T16:44:00;4.35;;;1.70;;
12886;SDS011;6511;49.746;6.094;2022-09-09T16:46:32;4.07;;;1.40;;
12886;SDS011;6511;49.746;6.094;2022-09-09T16:49:00;3.63;;;1.40;;
12886;SDS011;6511;49.746;6.094;2022-09-09T16:51:34;4.32;;;1.50;;
12886;SDS011;6511;49.746;6.094;2022-09-09T16:54:03;3.53;;;1.57;;
12886;SDS011;6511;49.746;6.094;2022-09-09T16:56:32;17.20;;;14.55;;
12886;SDS011;6511;49.746;6.094;2022-09-09T16:59:02;5.53;;;2.60;;
12886;SDS011;6511;49.746;6.094;2022-09-09T17:01:31;3.58;;;1.30;;
12886;SDS011;6511;49.746;6.094;2022-09-09T17:04:00;3.58;;;1.45;;
12886;SDS011;6511;49.746;6.094;2022-09-09T17:06:28;4.03;;;1.60;;
12886;SDS011;6511;49.746;6.094;2022-09-09T17:08:55;4.70;;;1.60;;
12886;SDS011;6511;49.746;6.094;2022-09-09T17:11:22;4.25;;;1.40;;
12886;SDS011;6511;49.746;6.094;2022-09-09T17:13:48;4.10;;;1.60;;
12886;SDS011;6511;49.746;6.094;2022-09-09T17:16:15;4.90;;;1.40;;
12886;SDS011;6511;49.746;6.094;2022-09-09T17:18:42;3.53;;;1.60;;
12886;SDS011;6511;49.746;6.094;2022-09-09T17:21:09;3.47;;;1.60;;
12886;SDS011;6511;49.746;6.094;2022-09-09T17:23:38;4.70;;;1.58;;
12886;SDS011;6511;49.746;6.094;2022-09-09T17:26:08;3.87;;;1.50;;
12886;SDS011;6511;49.746;6.094;2022-09-09T17:28:36;4.78;;;1.40;;
12886;SDS011;6511;49.746;6.094;2022-09-09T17:31:03;3.72;;;1.50;;
12886;SDS011;6511;49.746;6.094;2022-09-09T17:33:34;4.20;;;1.60;;
12886;SDS011;6511;49.746;6.094;2022-09-09T17:36:05;4.95;;;2.05;;
12886;SDS011;6511;49.746;6.094;2022-09-09T17:38:34;5.68;;;2.00;;
12886;SDS011;6511;49.746;6.094;2022-09-09T17:41:03;4.47;;;1.70;;
12886;SDS011;6511;49.746;6.094;2022-09-09T17:43:31;5.65;;;1.65;;
12886;SDS011;6511;49.746;6.094;2022-09-09T17:46:04;5.82;;;1.45;;
12886;SDS011;6511;49.746;6.094;2022-09-09T17:48:31;5.15;;;1.80;;
12886;SDS011;6511;49.746;6.094;2022-09-09T17:50:57;4.20;;;1.75;;
12886;SDS011;6511;49.746;6.094;2022-09-09T17:53:24;5.22;;;2.10;;
12886;SDS011;6511;49.746;6.094;2022-09-09T17:55:50;4.73;;;1.80;;
12886;SDS011;6511;49.746;6.094;2022-09-09T17:58:16;4.40;;;2.08;;
12886;SDS011;6511;49.746;6.094;2022-09-09T18:00:42;5.72;;;2.10;;
12886;SDS011;6511;49.746;6.094;2022-09-09T18:03:07;5.78;;;2.38;;
12886;SDS011;6511;49.746;6.094;2022-09-09T18:05:34;5.50;;;2.30;;
12886;SDS011;6511;49.746;6.094;2022-09-09T18:07:59;5.38;;;2.35;;
12886;SDS011;6511;49.746;6.094;2022-09-09T18:10:25;5.20;;;2.63;;
12886;SDS011;6511;49.746;6.094;2022-09-09T18:12:50;6.27;;;2.63;;
12886;SDS011;6511;49.746;6.094;2022-09-09T18:15:16;6.93;;;2.90;;
12886;SDS011;6511;49.746;6.094;2022-09-09T18:17:42;7.05;;;2.80;;
12886;SDS011;6511;49.746;6.094;2022-09-09T18:20:08;7.03;;;2.87;;
12886;SDS011;6511;49.746;6.094;2022-09-09T18:22:35;5.45;;;2.80;;
12886;SDS011;6511;49.746;6.094;2022-09-09T18:25:00;6.47;;;2.60;;